createdAt,value
2022-12-11T00:01:18.018Z,101091.69
2022-12-11T00:03:44.714Z,101089.19
2022-12-11T00:06:14.978Z,101093.72
2022-12-11T00:08:41.970Z,101086.69
2022-12-11T00:11:09.332Z,101092.31
2022-12-11T00:13:35.993Z,101082.66
2022-12-11T00:16:02.893Z,101081.81
2022-12-11T00:18:29.707Z,101094.81
2022-12-11T00:21:01.440Z,101088.72
2022-12-11T00:23:30.213Z,101087.78
2022-12-11T00:25:57.168Z,101091.25
2022-12-11T00:28:23.953Z,101086.94
2022-12-11T00:30:51.919Z,101093.88
2022-12-11T00:33:18.673Z,101086.78
2022-12-11T00:35:47.921Z,101082.38
2022-12-11T00:38:16.148Z,101092.88
2022-12-11T00:40:44.424Z,101094.66
2022-12-11T00:43:11.640Z,101090.41
2022-12-11T00:45:40.730Z,101092.88
2022-12-11T00:48:07.646Z,101091.25
2022-12-11T00:50:34.651Z,101092.75
2022-12-11T00:53:01.641Z,101090.97
2022-12-11T00:55:29.234Z,101086.56
2022-12-11T00:57:58.740Z,101083.81
2022-12-11T01:00:25.608Z,101084.66
2022-12-11T01:02:52.622Z,101082.88
2022-12-11T01:05:19.369Z,101073.06
2022-12-11T01:07:46.095Z,101072.38
2022-12-11T01:10:25.933Z,101074.03
2022-12-11T01:12:54.333Z,101071.41
2022-12-11T01:15:24.867Z,101068.91
2022-12-11T01:17:52.088Z,101071.53
2022-12-11T01:20:19.724Z,101062.84
2022-12-11T01:22:46.680Z,101068.19
2022-12-11T01:25:13.643Z,101071.66
2022-12-11T01:27:40.714Z,101068.91
2022-12-11T01:30:08.999Z,101066.19
2022-12-11T01:32:37.358Z,101061.88
2022-12-11T01:35:05.414Z,101062.84
2022-12-11T01:37:32.199Z,101067.13
2022-12-11T01:39:58.951Z,101059.50
2022-12-11T01:42:26.291Z,101063.78
2022-12-11T01:45:27.470Z,101056.88
2022-12-11T01:48:00.129Z,101056.88
2022-12-11T01:50:28.041Z,101054.38
2022-12-11T01:52:54.769Z,101053.53
2022-12-11T01:55:21.927Z,101057.84
2022-12-11T01:57:51.075Z,101058.66
2022-12-11T02:00:36.621Z,101056.88
2022-12-11T02:03:04.935Z,101063.06
2022-12-11T02:05:31.586Z,101063.06
2022-12-11T02:08:01.476Z,101063.06
2022-12-11T02:10:39.196Z,101070.00
2022-12-11T02:13:13.077Z,101063.91
2022-12-11T02:15:48.455Z,101067.25
2022-12-11T02:18:23.770Z,101066.28
2022-12-11T02:20:58.194Z,101066.41
2022-12-11T02:23:58.793Z,101061.16
2022-12-11T02:26:44.509Z,101055.81
2022-12-11T02:29:19.844Z,101052.47
2022-12-11T02:31:50.971Z,101054.25
2022-12-11T02:34:21.007Z,101047.34
2022-12-11T02:36:52.616Z,101048.06
2022-12-11T02:39:22.498Z,101050.78
2022-12-11T02:41:50.965Z,101050.78
2022-12-11T02:44:23.322Z,101052.47
2022-12-11T02:46:50.954Z,101053.19
2022-12-11T02:49:20.237Z,101055.69
2022-12-11T02:51:46.943Z,101042.69
2022-12-11T02:54:20.640Z,101040.91
2022-12-11T02:56:53.784Z,101038.41
2022-12-11T02:59:26.466Z,101038.28
2022-12-11T03:01:53.170Z,101046.28
2022-12-11T03:04:24.934Z,101047.09
2022-12-11T03:06:54.960Z,101034.09
2022-12-11T03:13:03.483Z,101034.22
2022-12-11T03:15:40.697Z,101029.81
2022-12-11T03:18:15.735Z,101027.19
2022-12-11T03:20:45.620Z,101024.56
2022-12-11T03:23:21.187Z,101025.41
2022-12-11T03:25:54.039Z,101027.19
2022-12-11T03:28:26.209Z,101028.84
2022-12-11T03:30:54.517Z,101034.00
2022-12-11T03:33:25.577Z,101032.19
2022-12-11T03:35:56.102Z,101029.47
2022-12-11T03:38:26.368Z,101030.25
2022-12-11T03:40:56.297Z,101027.50
2022-12-11T03:43:23.367Z,101030.84
2022-12-11T03:45:52.512Z,101029.91
2022-12-11T03:48:21.909Z,101025.38
2022-12-11T03:50:49.778Z,101031.28
2022-12-11T03:53:17.526Z,101031.19
2022-12-11T03:55:46.318Z,101020.69
2022-12-11T03:58:12.978Z,101014.47
2022-12-11T04:00:40.034Z,101014.47
2022-12-11T04:03:16.496Z,101017.09
2022-12-11T04:05:46.641Z,101016.28
2022-12-11T04:08:14.300Z,101018.78
2022-12-11T04:10:42.154Z,101009.94
2022-12-11T04:13:10.172Z,101015.03
2022-12-11T04:15:37.635Z,101013.41
2022-12-11T04:18:30.930Z,101008.97
2022-12-11T04:21:17.296Z,101003.72
2022-12-11T04:24:02.572Z,101008.97
2022-12-11T04:26:29.265Z,101015.88
2022-12-11T04:28:55.869Z,101003.59
2022-12-11T04:31:23.657Z,101003.47
2022-12-11T04:33:51.742Z,101006.94
2022-12-11T04:36:19.762Z,101001.44
2022-12-11T04:38:46.379Z,100995.34
2022-12-11T04:41:15.468Z,100997.00
2022-12-11T04:43:45.095Z,100997.81
2022-12-11T04:46:13.603Z,100991.75
2022-12-11T04:48:40.892Z,100997.81
2022-12-11T04:51:08.495Z,100994.25
2022-12-11T04:53:37.361Z,100989.00
2022-12-11T04:56:05.671Z,100990.66
2022-12-11T04:58:33.125Z,100991.50
2022-12-11T05:00:59.841Z,100990.53
2022-12-11T05:03:27.004Z,100993.16
2022-12-11T05:05:54.095Z,100994.00
2022-12-11T05:08:21.586Z,100995.66
2022-12-11T05:10:57.584Z,100996.63
2022-12-11T05:13:24.304Z,100997.56
2022-12-11T05:15:51.192Z,100999.38
2022-12-11T05:18:18.131Z,101002.81
2022-12-11T05:20:45.095Z,100997.69
2022-12-11T05:23:11.918Z,101002.81
2022-12-11T05:25:38.509Z,101009.75
2022-12-11T05:28:06.569Z,101000.91
2022-12-11T05:30:33.306Z,101004.09
2022-12-11T05:32:59.941Z,100999.69
2022-12-11T05:35:26.565Z,100996.22
2022-12-11T05:37:53.138Z,100997.91
2022-12-11T05:40:19.781Z,100993.47
2022-12-11T05:42:46.394Z,100998.59
2022-12-11T05:45:14.432Z,100994.19
2022-12-11T05:47:41.113Z,100996.81
2022-12-11T05:50:08.617Z,100995.03
2022-12-11T05:52:35.492Z,100995.97
2022-12-11T05:55:02.307Z,100998.59
2022-12-11T05:57:29.254Z,100990.72
2022-12-11T05:59:55.935Z,100984.66
2022-12-11T06:02:24.376Z,100991.56
2022-12-11T06:04:51.094Z,100972.38
2022-12-11T06:07:17.799Z,100981.06
2022-12-11T06:09:44.653Z,100970.56
2022-12-11T06:12:11.349Z,100969.75
2022-12-11T06:14:38.368Z,100966.28
2022-12-11T06:17:07.538Z,100964.38
2022-12-11T06:19:37.157Z,100974.88
2022-12-11T06:22:04.178Z,100969.75
2022-12-11T06:24:30.904Z,100967.25
2022-12-11T06:26:57.548Z,100973.44
2022-12-11T06:29:24.396Z,100967.34
2022-12-11T06:31:51.212Z,100965.56
2022-12-11T06:34:17.970Z,100967.25
2022-12-11T06:36:45.918Z,100977.72
2022-12-11T06:39:12.540Z,100973.44
2022-12-11T06:41:39.204Z,100982.16
2022-12-11T06:44:05.844Z,100986.56
2022-12-11T06:46:32.571Z,100988.22
2022-12-11T06:48:59.275Z,100981.31
2022-12-11T06:51:26.050Z,100989.19
2022-12-11T06:53:55.834Z,100989.31
2022-12-11T06:56:24.529Z,100988.63
2022-12-11T06:58:52.051Z,100993.16
2022-12-11T07:01:20.634Z,100995.91
2022-12-11T07:03:48.166Z,100994.25
2022-12-11T07:06:15.536Z,101003.91
2022-12-11T07:08:43.716Z,101005.84
2022-12-11T07:11:13.546Z,101003.34
2022-12-11T07:13:42.255Z,101000.00
2022-12-11T07:16:11.305Z,100998.47
2022-12-11T07:18:38.736Z,101008.97
2022-12-11T07:21:06.195Z,101007.31
2022-12-11T07:23:34.416Z,101003.03
2022-12-11T07:26:05.895Z,101012.56
2022-12-11T07:28:34.392Z,101014.34
2022-12-11T07:31:05.242Z,101009.13
2022-12-11T07:33:31.843Z,101013.53
2022-12-11T07:36:01.412Z,101018.78
2022-12-11T07:38:28.409Z,101021.28
2022-12-11T07:40:55.048Z,101020.44
2022-12-11T07:43:23.022Z,101012.69
2022-12-11T07:45:51.211Z,101008.28
2022-12-11T07:48:17.985Z,101010.78
2022-12-11T07:50:44.675Z,101014.91
2022-12-11T07:53:11.282Z,101003.59
2022-12-11T07:55:38.197Z,101005.25
2022-12-11T07:58:06.319Z,101021.00
2022-12-11T08:00:33.078Z,101019.22
2022-12-11T08:03:01.298Z,101018.66
2022-12-11T08:05:27.979Z,101027.47
2022-12-11T08:07:54.833Z,101012.94
2022-12-11T08:10:22.946Z,101025.22
2022-12-11T08:12:49.581Z,101024.38
2022-12-11T08:15:16.306Z,101025.94
2022-12-11T08:17:42.986Z,101022.47
2022-12-11T08:20:11.318Z,101030.34
2022-12-11T08:22:38.050Z,101026.06
2022-12-11T08:25:05.624Z,101024.38
2022-12-11T08:27:32.268Z,101031.19
2022-12-11T08:29:58.888Z,101029.50
2022-12-11T08:32:25.622Z,101026.88
2022-12-11T08:34:52.680Z,101026.16
2022-12-11T08:37:20.797Z,101023.53
2022-12-11T08:39:47.446Z,101027.00
2022-12-11T08:42:14.086Z,101021.63
2022-12-11T08:44:41.314Z,101022.59
2022-12-11T08:47:09.868Z,101018.19
2022-12-11T08:49:36.719Z,101018.31
2022-12-11T08:52:04.561Z,101014.03
2022-12-11T08:54:32.677Z,101004.38
2022-12-11T08:56:59.495Z,101006.16
2022-12-11T08:59:26.170Z,101005.19
2022-12-11T09:01:54.207Z,101005.06
2022-12-11T09:04:21.023Z,100997.06
2022-12-11T09:06:47.808Z,101000.41
2022-12-11T09:09:14.860Z,101003.72
2022-12-11T09:11:43.086Z,100998.34
2022-12-11T09:14:10.148Z,101006.09
2022-12-11T09:16:40.221Z,101000.84
2022-12-11T09:19:08.637Z,100996.31
2022-12-11T09:21:35.290Z,100997.16
2022-12-11T09:24:02.339Z,101001.44
2022-12-11T09:26:30.282Z,101003.06
2022-12-11T09:28:58.857Z,100998.66
2022-12-11T09:31:28.301Z,101001.28
2022-12-11T09:33:56.891Z,101001.28
2022-12-11T09:36:24.445Z,100995.91
2022-12-11T09:38:52.238Z,100996.75
2022-12-11T09:41:40.841Z,101000.91
2022-12-11T09:44:23.594Z,101008.66
2022-12-11T09:46:51.732Z,101002.59
2022-12-11T09:49:33.302Z,100998.97
2022-12-11T09:52:11.740Z,101001.34
2022-12-11T09:54:43.987Z,100996.09
2022-12-11T09:57:18.644Z,100987.41
2022-12-11T10:00:05.675Z,100988.22
2022-12-11T10:02:46.756Z,100988.22
2022-12-11T10:05:21.545Z,100986.44
2022-12-11T10:07:52.811Z,100984.66
2022-12-11T10:10:33.347Z,100984.66
2022-12-11T10:13:06.753Z,100982.72
2022-12-11T10:15:40.409Z,100981.63
2022-12-11T10:18:14.458Z,100984.97
2022-12-11T10:20:42.876Z,100980.53
2022-12-11T10:23:17.084Z,100981.25
2022-12-11T10:25:49.416Z,100971.72
2022-12-11T10:28:18.886Z,100981.09
2022-12-11T10:30:51.998Z,100982.75
2022-12-11T10:33:22.534Z,100973.09
2022-12-11T10:35:51.883Z,100972.25
2022-12-11T10:38:23.809Z,100971.19
2022-12-11T10:40:52.710Z,100973.53
2022-12-11T10:43:19.484Z,100969.13
2022-12-11T10:45:55.332Z,100962.06
2022-12-11T10:48:23.113Z,100968.16
2022-12-11T10:51:00.079Z,100969.00
2022-12-11T10:53:28.132Z,100958.38
2022-12-11T10:55:58.006Z,100961.00
2022-12-11T10:58:28.511Z,100958.38
2022-12-11T11:01:06.412Z,100963.63
2022-12-11T11:03:35.563Z,100961.00
2022-12-11T11:06:07.210Z,100960.03
2022-12-11T11:08:42.532Z,100958.25
2022-12-11T11:11:22.102Z,100956.28
2022-12-11T11:13:49.551Z,100957.13
2022-12-11T11:16:21.032Z,100955.31
2022-12-11T11:18:54.132Z,100957.13
2022-12-11T11:21:23.217Z,100957.97
2022-12-11T11:23:53.702Z,100949.94
2022-12-11T11:26:22.944Z,100946.38
2022-12-11T11:28:53.087Z,100945.28
2022-12-11T11:31:30.804Z,100947.63
2022-12-11T11:34:03.189Z,100951.91
2022-12-11T11:36:32.868Z,100938.91
2022-12-11T11:39:20.470Z,100946.66
2022-12-11T11:41:53.993Z,100947.50
2022-12-11T11:44:27.341Z,100945.97
2022-12-11T11:47:01.150Z,100952.88
2022-12-11T11:49:41.908Z,100935.34
2022-12-11T11:52:16.266Z,100929.53
2022-12-11T11:54:51.221Z,100927.56
2022-12-11T11:57:27.354Z,100935.63
2022-12-11T11:59:58.434Z,100924.28
2022-12-11T12:02:26.641Z,100924.84
2022-12-11T12:04:53.425Z,100924.00
2022-12-11T12:07:38.102Z,100924.13
2022-12-11T12:10:15.087Z,100924.28
2022-12-11T12:12:50.354Z,100928.41
2022-12-11T12:15:33.721Z,100930.22
2022-12-11T12:18:11.990Z,100915.41
2022-12-11T12:20:47.387Z,100918.03
2022-12-11T12:23:36.334Z,100913.63
2022-12-11T12:26:11.321Z,100915.16
2022-12-11T12:28:49.128Z,100911.56
2022-12-11T12:31:30.297Z,100913.50
2022-12-11T12:34:10.154Z,100916.00
2022-12-11T12:36:46.123Z,100915.16
2022-12-11T12:39:19.740Z,100906.56
2022-12-11T12:41:55.438Z,100907.41
2022-12-11T12:44:24.698Z,100917.06
2022-12-11T12:46:59.881Z,100913.50
2022-12-11T12:49:35.622Z,100909.06
2022-12-11T12:52:04.959Z,100912.66
2022-12-11T12:54:33.883Z,100911.16
2022-12-11T12:57:04.126Z,100910.31
2022-12-11T12:59:32.508Z,100916.53
2022-12-11T13:02:03.455Z,100919.69
2022-12-11T13:04:55.970Z,100922.19
2022-12-11T13:07:28.670Z,100915.03
2022-12-11T13:10:03.393Z,100911.56
2022-12-11T13:12:33.969Z,100908.94
2022-12-11T13:15:02.047Z,100916.00
2022-12-11T13:17:37.614Z,100916.81
2022-12-11T13:20:16.433Z,100909.91
2022-12-11T13:22:54.990Z,100916.81
2022-12-11T13:25:26.806Z,100913.25
2022-12-11T13:28:04.045Z,100917.78
2022-12-11T13:30:31.954Z,100909.19
2022-12-11T13:33:04.774Z,100907.69
2022-12-11T13:35:35.351Z,100910.16
2022-12-11T13:38:06.276Z,100916.00
2022-12-11T13:40:38.291Z,100915.16
2022-12-11T13:43:09.710Z,100923.03
2022-12-11T13:45:43.626Z,100921.25
2022-12-11T13:48:18.884Z,100930.66
2022-12-11T13:50:48.329Z,100924.41
2022-12-11T13:53:16.075Z,100936.59
2022-12-11T13:55:42.760Z,100923.75
2022-12-11T13:58:17.050Z,100931.63
2022-12-11T14:01:00.140Z,100932.28
2022-12-11T14:03:27.435Z,100935.63
2022-12-11T14:05:55.532Z,100937.41
2022-12-11T14:08:26.410Z,100933.41
2022-12-11T14:10:54.394Z,100935.22
2022-12-11T14:13:24.163Z,100938.66
2022-12-11T14:15:53.580Z,100934.91
2022-12-11T14:18:23.310Z,100937.53
2022-12-11T14:20:56.354Z,100930.66
2022-12-11T14:23:25.356Z,100932.28
2022-12-11T14:25:54.368Z,100933.97
2022-12-11T14:28:21.997Z,100929.53
2022-12-11T14:30:51.067Z,100918.38
2022-12-11T14:33:21.768Z,100940.88
2022-12-11T14:35:50.189Z,100938.25
2022-12-11T14:38:20.972Z,100938.25
2022-12-11T14:40:51.714Z,100933.13
2022-12-11T14:43:23.405Z,100934.25
2022-12-11T14:45:55.461Z,100930.06
2022-12-11T14:48:25.187Z,100928.41
2022-12-11T14:50:53.746Z,100933.13
2022-12-11T14:53:25.596Z,100934.19
2022-12-11T14:55:54.004Z,100936.94
2022-12-11T14:58:22.875Z,100937.91
2022-12-11T15:00:59.271Z,100944.00
2022-12-11T15:03:32.181Z,100939.72
2022-12-11T15:05:59.339Z,100934.59
2022-12-11T15:08:29.382Z,100942.50
2022-12-11T15:11:02.121Z,100940.81
2022-12-11T15:13:29.088Z,100937.47
2022-12-11T15:15:58.829Z,100944.66
2022-12-11T15:18:29.825Z,100939.41
2022-12-11T15:21:01.105Z,100943.69
2022-12-11T15:23:29.899Z,100946.31
2022-12-11T15:25:59.382Z,100947.16
2022-12-11T15:28:29.186Z,100949.09
2022-12-11T15:30:58.597Z,100942.19
2022-12-11T15:33:28.471Z,100940.66
2022-12-11T15:36:02.103Z,100942.56
2022-12-11T15:38:35.026Z,100948.66
2022-12-11T15:41:03.121Z,100949.34
2022-12-11T15:43:34.708Z,100954.59
2022-12-11T15:46:01.750Z,100955.44
2022-12-11T15:48:28.597Z,100954.03
2022-12-11T15:50:55.497Z,100954.03
2022-12-11T15:53:22.652Z,100967.13
2022-12-11T15:55:51.347Z,100968.97
2022-12-11T15:58:23.229Z,100974.06
2022-12-11T16:00:53.095Z,100964.50
2022-12-11T16:03:23.256Z,100971.44
2022-12-11T16:05:51.904Z,100960.09
2022-12-11T16:08:20.968Z,100968.13
2022-12-11T16:10:48.402Z,100968.13
2022-12-11T16:13:16.826Z,100957.63
2022-12-11T16:15:46.561Z,100958.59
2022-12-11T16:18:15.558Z,100960.38
2022-12-11T16:20:43.745Z,100955.25
2022-12-11T16:23:11.686Z,100951.91
2022-12-11T16:25:39.654Z,100952.63
2022-12-11T16:28:07.230Z,100957.88
2022-12-11T16:30:37.131Z,100947.50
2022-12-11T16:33:11.823Z,100948.47
2022-12-11T16:35:39.771Z,100947.63
2022-12-11T16:38:07.766Z,100946.53
2022-12-11T16:40:34.485Z,100941.31
2022-12-11T16:43:01.401Z,100950.00
2022-12-11T16:45:28.249Z,100944.63
2022-12-11T16:48:11.198Z,100945.34
2022-12-11T16:50:40.374Z,100939.25
2022-12-11T16:53:07.277Z,100941.88
2022-12-11T16:55:33.956Z,100951.41
2022-12-11T16:58:01.327Z,100946.97
2022-12-11T17:00:28.196Z,100953.91
2022-12-11T17:02:54.881Z,100953.22
2022-12-11T17:05:23.198Z,100949.88
2022-12-11T17:07:49.922Z,100950.84
2022-12-11T17:10:16.756Z,100952.50
2022-12-11T17:12:43.428Z,100954.28
2022-12-11T17:15:10.789Z,100956.09
2022-12-11T17:17:38.030Z,100956.09
2022-12-11T17:20:05.739Z,100950.13
2022-12-11T17:22:34.992Z,100953.72
2022-12-11T17:25:01.727Z,100959.78
2022-12-11T17:27:28.572Z,100958.00
2022-12-11T17:29:55.342Z,100960.50
2022-12-11T17:32:22.072Z,100959.53
2022-12-11T17:34:50.499Z,100957.03
2022-12-11T17:37:17.332Z,100960.63
2022-12-11T17:39:47.625Z,100954.53
2022-12-11T17:42:14.327Z,100959.78
2022-12-11T17:44:41.147Z,100960.63
2022-12-11T17:47:11.270Z,100955.50
2022-12-11T17:49:38.258Z,100952.75
2022-12-11T17:52:05.253Z,100947.38
2022-12-11T17:54:32.131Z,100952.63
2022-12-11T17:57:00.209Z,100952.50
2022-12-11T17:59:26.953Z,100958.47
2022-12-11T18:01:53.779Z,100966.34
2022-12-11T18:04:20.618Z,100958.31
2022-12-11T18:06:47.504Z,100961.75
2022-12-11T18:09:14.222Z,100958.31
2022-12-11T18:11:41.241Z,100957.34
2022-12-11T18:14:15.262Z,100957.34
2022-12-11T18:16:43.680Z,100965.94
2022-12-11T18:19:11.515Z,100958.06
2022-12-11T18:21:41.318Z,100962.34
2022-12-11T18:24:09.289Z,100964.13
2022-12-11T18:26:37.612Z,100955.44
2022-12-11T18:29:05.644Z,100965.94
2022-12-11T18:31:37.497Z,100970.34
2022-12-11T18:34:07.809Z,100959.84
2022-12-11T18:36:34.577Z,100956.28
2022-12-11T18:39:01.577Z,100967.31
2022-12-11T18:41:28.285Z,100960.41
2022-12-11T18:43:55.463Z,100968.28
2022-12-11T18:46:22.337Z,100961.13
2022-12-11T18:48:50.806Z,100954.34
2022-12-11T18:51:32.542Z,100960.69
2022-12-11T18:53:59.336Z,100958.78
2022-12-11T18:56:26.046Z,100964.84
2022-12-11T18:58:52.890Z,100959.44
2022-12-11T19:01:22.204Z,100962.91
2022-12-11T19:03:51.421Z,100966.50
2022-12-11T19:06:21.490Z,100961.25
2022-12-11T19:08:48.399Z,100955.03
2022-12-11T19:11:16.327Z,100946.31
2022-12-11T19:13:44.076Z,100949.66
2022-12-11T19:16:15.792Z,100955.72
2022-12-11T19:18:42.566Z,100950.63
2022-12-11T19:21:12.615Z,100956.69
2022-12-11T19:23:40.278Z,100952.16
2022-12-11T19:26:10.868Z,100954.78
2022-12-11T19:28:37.689Z,100963.50
2022-12-11T19:31:08.131Z,100961.94
2022-12-11T19:33:34.894Z,100960.16
2022-12-11T19:36:02.610Z,100963.75
2022-12-11T19:38:30.660Z,100956.56
2022-12-11T19:40:57.356Z,100961.00
2022-12-11T19:43:24.211Z,100961.00
2022-12-11T19:45:50.917Z,100963.63
2022-12-11T19:48:17.851Z,100963.50
2022-12-11T19:50:44.566Z,100963.63
2022-12-11T19:53:11.588Z,100960.03
2022-12-11T19:55:39.725Z,100962.78
2022-12-11T19:58:16.910Z,100966.13
2022-12-11T20:00:44.028Z,100966.13
2022-12-11T20:03:10.783Z,100965.28
2022-12-11T20:05:38.215Z,100971.38
2022-12-11T20:08:35.301Z,100973.16
2022-12-11T20:10:53.106Z,100975.78
2022-12-11T20:13:21.411Z,100975.91
2022-12-11T20:15:48.699Z,100975.91
2022-12-11T20:18:18.551Z,100978.53
2022-12-11T20:20:45.587Z,100980.19
2022-12-11T20:23:12.853Z,100986.41
2022-12-11T20:25:41.069Z,100985.69
2022-12-11T20:28:09.436Z,100985.69
2022-12-11T20:30:36.124Z,100978.94
2022-12-11T20:33:02.904Z,100984.19
2022-12-11T20:35:29.642Z,100984.19
2022-12-11T20:37:56.432Z,100979.06
2022-12-11T20:40:24.069Z,100977.41
2022-12-11T20:42:50.993Z,100977.41
2022-12-11T20:45:19.442Z,100973.94
2022-12-11T20:47:46.242Z,100972.38
2022-12-11T20:50:13.044Z,100978.63
2022-12-11T20:52:39.825Z,100969.75
2022-12-11T20:55:07.785Z,100966.34
2022-12-11T20:57:34.551Z,100969.75
2022-12-11T21:00:01.342Z,100972.38
2022-12-11T21:02:31.043Z,100981.94
2022-12-11T21:04:58.019Z,100980.13
2022-12-11T21:07:25.794Z,100979.19
2022-12-11T21:09:52.508Z,100972.25
2022-12-11T21:12:19.397Z,100970.59
2022-12-11T21:14:46.263Z,100972.25
2022-12-11T21:17:12.987Z,100978.34
2022-12-11T21:19:41.108Z,100971.44
2022-12-11T21:22:07.823Z,100974.06
2022-12-11T21:24:34.556Z,100979.31
2022-12-11T21:27:01.402Z,100975.72
2022-12-11T21:29:29.423Z,100977.50
2022-12-11T21:31:56.486Z,100970.34
2022-12-11T21:34:25.501Z,100972.03
2022-12-11T21:36:56.580Z,100971.19
2022-12-11T21:39:23.721Z,100969.41
2022-12-11T21:41:50.436Z,100974.53
2022-12-11T21:47:04.306Z,100979.78
2022-12-11T21:49:31.341Z,100983.22
2022-12-11T21:51:59.402Z,100987.66
2022-12-11T21:54:26.137Z,100978.09
2022-12-11T21:56:54.249Z,100984.03
2022-12-11T21:59:21.081Z,100977.81
2022-12-11T22:01:47.800Z,100984.75
2022-12-11T22:04:15.967Z,100982.94
2022-12-11T22:06:43.643Z,100988.31
2022-12-11T22:09:12.960Z,100990.94
2022-12-11T22:11:41.471Z,100996.06
2022-12-11T22:14:11.668Z,100994.28
2022-12-11T22:16:38.418Z,100994.41
2022-12-11T22:19:05.389Z,100993.44
2022-12-11T22:21:32.173Z,100992.75
2022-12-11T22:23:59.849Z,100999.94
2022-12-11T22:26:33.439Z,101000.06
2022-12-11T22:29:00.259Z,101001.72
2022-12-11T22:31:27.496Z,101008.66
2022-12-11T22:33:55.099Z,101007.81
2022-12-11T22:36:22.366Z,101004.34
2022-12-11T22:38:49.078Z,101010.44
2022-12-11T22:41:22.290Z,101009.59
2022-12-11T22:43:50.779Z,101009.84
2022-12-11T22:46:18.559Z,101009.84
2022-12-11T22:48:45.337Z,101002.81
2022-12-11T22:51:12.742Z,101003.75
2022-12-11T22:53:39.514Z,101004.03
2022-12-11T22:56:07.200Z,101003.34
2022-12-11T22:58:34.285Z,101010.38
2022-12-11T23:01:03.780Z,101005.13
2022-12-11T23:03:30.491Z,101000.00
2022-12-11T23:06:00.775Z,100995.56
2022-12-11T23:08:30.100Z,101004.41
2022-12-11T23:10:56.865Z,101011.44
2022-12-11T23:13:26.671Z,101011.44
2022-12-11T23:15:53.373Z,101009.66
2022-12-11T23:18:21.384Z,101011.31
2022-12-11T23:20:48.976Z,101013.25
2022-12-11T23:23:15.652Z,101008.00
2022-12-11T23:25:42.272Z,101013.94
2022-12-11T23:28:09.056Z,101013.94
2022-12-11T23:30:35.715Z,101010.38
2022-12-11T23:33:02.388Z,101003.44
2022-12-11T23:35:30.458Z,101007.03
2022-12-11T23:37:57.094Z,101008.00
2022-12-11T23:40:23.854Z,101010.78
2022-12-11T23:43:46.777Z,101007.31
2022-12-11T23:46:16.160Z,101003.97
2022-12-11T23:48:42.977Z,101003.97
2022-12-11T23:51:14.132Z,101009.22
2022-12-11T23:53:41.668Z,100995.28
2022-12-11T23:56:11.569Z,100995.28
2022-12-11T23:58:39.102Z,101003.97
